DAAS

Details ICAO DAAS (QSF)
Name Ain Arnat
Region Algeria
Timezone Africa/Algiers (UTC+1.0)
Plans Departing 12
Arriving 11
Stats Elevation 3,360 ft / 1,024 m (AMSL)
Location 36.178129° 5.324493°
Runways 1
Magnetic Variation 1.477° E
Sunrise 2017-12-16 06:44:30 UTC / 2017-12-16 07:44:30 Local
Sunset 2017-12-16 16:26:55 UTC / 2017-12-16 17:26:55 Local
Advertisement - Login to hide

Runways

ID Width Length Bearing (true) Bearing (mag) Surface Threshold Offset Overrun Length
09 125 ft / 38 m 6,320 ft / 1,926 m 88.49° 87.01° Asphalt 300 ft / 91 m 0 ft / 0 m
27 125 ft / 38 m 6,320 ft / 1,926 m 268.51° 267.03° Asphalt 329 ft / 100 m 0 ft / 0 m

Map

Weather


0- 5 10 15 20 25 30 35+ Temperature / ° C

Clouds and Precipitation
Forecast for 2017-12-16 06:00 UTC. Updated 2 hours ago

Ground ~20,000 ft ~40,000 ft Winds

METAR

DAAS 160200Z 00000KT 9999 FEW030 SCT100 06/04 Q1011

TAF

TAF DAAS 152300Z 1600/1624 24013KT 9999 FEW030 SCT100 TEMPO 1600/1612 FEW023TCU PROB40 TEMPO 1603/1615 30012KT 5000 -TSRA FEW026CB BKN033
Warning: Do not use this data for real-world aviation or navigation. No guarantee of current accuracy is given.